sensor_id;sensor_type;location;lat;lon;timestamp;temperature;humidity
25102;DHT22;13087;51.472;5.464;2022-08-24T00:01:58;29.20;41.40
25102;DHT22;13087;51.472;5.464;2022-08-24T00:04:24;29.20;41.40
25102;DHT22;13087;51.472;5.464;2022-08-24T00:06:50;29.20;41.40
25102;DHT22;13087;51.472;5.464;2022-08-24T00:09:17;29.20;41.40
25102;DHT22;13087;51.472;5.464;2022-08-24T00:11:43;29.10;41.30
25102;DHT22;13087;51.472;5.464;2022-08-24T00:14:08;29.10;41.40
25102;DHT22;13087;51.472;5.464;2022-08-24T00:16:35;29.10;41.50
25102;DHT22;13087;51.472;5.464;2022-08-24T00:19:01;29.10;41.60
25102;DHT22;13087;51.472;5.464;2022-08-24T00:21:26;29.00;41.60
25102;DHT22;13087;51.472;5.464;2022-08-24T00:23:52;29.00;41.60
25102;DHT22;13087;51.472;5.464;2022-08-24T00:26:17;29.00;41.70
25102;DHT22;13087;51.472;5.464;2022-08-24T00:28:43;29.00;41.70
25102;DHT22;13087;51.472;5.464;2022-08-24T00:31:09;28.90;41.80
25102;DHT22;13087;51.472;5.464;2022-08-24T00:33:35;28.90;41.80
25102;DHT22;13087;51.472;5.464;2022-08-24T00:36:01;28.90;41.80
25102;DHT22;13087;51.472;5.464;2022-08-24T00:38:26;28.80;41.90
25102;DHT22;13087;51.472;5.464;2022-08-24T00:40:55;28.80;41.90
25102;DHT22;13087;51.472;5.464;2022-08-24T00:43:21;28.80;42.10
25102;DHT22;13087;51.472;5.464;2022-08-24T00:45:54;28.70;42.10
25102;DHT22;13087;51.472;5.464;2022-08-24T00:48:23;28.70;42.30
25102;DHT22;13087;51.472;5.464;2022-08-24T00:50:53;28.60;42.30
25102;DHT22;13087;51.472;5.464;2022-08-24T00:53:23;28.60;42.40
25102;DHT22;13087;51.472;5.464;2022-08-24T00:55:50;28.50;42.40
25102;DHT22;13087;51.472;5.464;2022-08-24T01:00:47;28.60;42.50
25102;DHT22;13087;51.472;5.464;2022-08-24T01:03:13;28.50;42.70
25102;DHT22;13087;51.472;5.464;2022-08-24T01:05:39;28.40;42.70
25102;DHT22;13087;51.472;5.464;2022-08-24T01:08:05;28.40;42.70
25102;DHT22;13087;51.472;5.464;2022-08-24T01:10:32;28.40;42.70
25102;DHT22;13087;51.472;5.464;2022-08-24T01:13:01;28.40;43.40
25102;DHT22;13087;51.472;5.464;2022-08-24T01:15:29;28.30;42.80
25102;DHT22;13087;51.472;5.464;2022-08-24T01:17:55;28.30;42.90
25102;DHT22;13087;51.472;5.464;2022-08-24T01:20:39;28.30;43.00
25102;DHT22;13087;51.472;5.464;2022-08-24T01:25:33;28.20;43.10
25102;DHT22;13087;51.472;5.464;2022-08-24T01:28:03;28.20;43.10
25102;DHT22;13087;51.472;5.464;2022-08-24T01:30:29;28.10;43.10
25102;DHT22;13087;51.472;5.464;2022-08-24T01:32:56;28.10;43.20
25102;DHT22;13087;51.472;5.464;2022-08-24T01:35:22;28.10;43.30
25102;DHT22;13087;51.472;5.464;2022-08-24T01:37:47;28.10;43.30
25102;DHT22;13087;51.472;5.464;2022-08-24T01:40:14;28.10;43.40
25102;DHT22;13087;51.472;5.464;2022-08-24T01:42:45;28.00;43.40
25102;DHT22;13087;51.472;5.464;2022-08-24T01:45:11;28.00;43.40
25102;DHT22;13087;51.472;5.464;2022-08-24T01:47:36;28.00;43.40
25102;DHT22;13087;51.472;5.464;2022-08-24T01:50:02;28.00;43.50
25102;DHT22;13087;51.472;5.464;2022-08-24T01:52:28;28.00;43.40
25102;DHT22;13087;51.472;5.464;2022-08-24T01:54:57;28.00;43.50
25102;DHT22;13087;51.472;5.464;2022-08-24T01:57:23;27.90;43.40
25102;DHT22;13087;51.472;5.464;2022-08-24T01:59:49;27.90;43.50
25102;DHT22;13087;51.472;5.464;2022-08-24T02:02:15;27.90;43.70
25102;DHT22;13087;51.472;5.464;2022-08-24T02:04:41;27.80;43.70
25102;DHT22;13087;51.472;5.464;2022-08-24T02:07:07;27.80;43.80
25102;DHT22;13087;51.472;5.464;2022-08-24T02:09:34;27.80;43.80
25102;DHT22;13087;51.472;5.464;2022-08-24T02:12:00;27.70;43.80
25102;DHT22;13087;51.472;5.464;2022-08-24T02:14:26;27.70;43.80
25102;DHT22;13087;51.472;5.464;2022-08-24T02:16:55;27.70;43.90
25102;DHT22;13087;51.472;5.464;2022-08-24T02:19:21;27.70;44.00
25102;DHT22;13087;51.472;5.464;2022-08-24T02:21:47;27.50;44.00
25102;DHT22;13087;51.472;5.464;2022-08-24T02:24:12;27.60;44.20
25102;DHT22;13087;51.472;5.464;2022-08-24T02:26:38;27.50;44.80
25102;DHT22;13087;51.472;5.464;2022-08-24T02:29:04;27.50;44.10
25102;DHT22;13087;51.472;5.464;2022-08-24T02:31:30;27.50;44.20
25102;DHT22;13087;51.472;5.464;2022-08-24T02:33:55;27.50;44.20
25102;DHT22;13087;51.472;5.464;2022-08-24T02:36:21;27.40;44.20
25102;DHT22;13087;51.472;5.464;2022-08-24T02:38:48;27.40;44.30
25102;DHT22;13087;51.472;5.464;2022-08-24T02:41:14;27.40;44.40
25102;DHT22;13087;51.472;5.464;2022-08-24T02:43:39;27.40;44.40
25102;DHT22;13087;51.472;5.464;2022-08-24T02:46:05;27.30;44.50
25102;DHT22;13087;51.472;5.464;2022-08-24T02:48:31;27.30;44.50
25102;DHT22;13087;51.472;5.464;2022-08-24T02:50:56;27.30;44.50
25102;DHT22;13087;51.472;5.464;2022-08-24T02:53:21;27.30;44.60
25102;DHT22;13087;51.472;5.464;2022-08-24T02:55:47;27.30;44.60
25102;DHT22;13087;51.472;5.464;2022-08-24T02:58:13;27.20;44.60
25102;DHT22;13087;51.472;5.464;2022-08-24T03:00:40;27.20;44.70
25102;DHT22;13087;51.472;5.464;2022-08-24T03:03:07;27.10;44.80
25102;DHT22;13087;51.472;5.464;2022-08-24T03:05:33;27.10;44.80
25102;DHT22;13087;51.472;5.464;2022-08-24T03:07:59;27.10;44.80
25102;DHT22;13087;51.472;5.464;2022-08-24T03:10:24;27.10;44.80
25102;DHT22;13087;51.472;5.464;2022-08-24T03:12:50;27.10;44.90
25102;DHT22;13087;51.472;5.464;2022-08-24T03:15:16;27.10;45.00
25102;DHT22;13087;51.472;5.464;2022-08-24T03:17:42;27.10;45.00
25102;DHT22;13087;51.472;5.464;2022-08-24T03:20:09;27.10;44.90
25102;DHT22;13087;51.472;5.464;2022-08-24T03:22:36;27.10;44.90
25102;DHT22;13087;51.472;5.464;2022-08-24T03:25:02;27.10;45.00
25102;DHT22;13087;51.472;5.464;2022-08-24T03:27:27;27.00;45.00
25102;DHT22;13087;51.472;5.464;2022-08-24T03:29:53;27.00;45.00
25102;DHT22;13087;51.472;5.464;2022-08-24T03:32:18;27.00;45.00
25102;DHT22;13087;51.472;5.464;2022-08-24T03:34:44;26.90;44.90
25102;DHT22;13087;51.472;5.464;2022-08-24T03:37:10;27.00;45.00
25102;DHT22;13087;51.472;5.464;2022-08-24T03:39:35;27.00;45.00
25102;DHT22;13087;51.472;5.464;2022-08-24T03:42:00;26.90;45.00
25102;DHT22;13087;51.472;5.464;2022-08-24T03:44:26;26.90;45.00
25102;DHT22;13087;51.472;5.464;2022-08-24T03:46:51;26.90;45.00
25102;DHT22;13087;51.472;5.464;2022-08-24T03:49:18;26.90;45.00
25102;DHT22;13087;51.472;5.464;2022-08-24T03:51:43;26.80;45.10
25102;DHT22;13087;51.472;5.464;2022-08-24T03:54:09;26.80;45.20
25102;DHT22;13087;51.472;5.464;2022-08-24T03:56:35;26.80;45.30
25102;DHT22;13087;51.472;5.464;2022-08-24T03:59:01;26.70;45.40
25102;DHT22;13087;51.472;5.464;2022-08-24T04:01:26;26.70;45.40
25102;DHT22;13087;51.472;5.464;2022-08-24T04:03:52;26.70;45.50
25102;DHT22;13087;51.472;5.464;2022-08-24T04:06:18;26.60;45.50
25102;DHT22;13087;51.472;5.464;2022-08-24T04:08:44;26.60;45.50
25102;DHT22;13087;51.472;5.464;2022-08-24T04:11:10;26.60;45.60
25102;DHT22;13087;51.472;5.464;2022-08-24T04:13:36;26.50;45.60
25102;DHT22;13087;51.472;5.464;2022-08-24T04:16:08;26.50;45.70
25102;DHT22;13087;51.472;5.464;2022-08-24T04:18:34;26.40;45.70
25102;DHT22;13087;51.472;5.464;2022-08-24T04:21:00;26.40;45.90
25102;DHT22;13087;51.472;5.464;2022-08-24T04:23:26;26.40;46.00
25102;DHT22;13087;51.472;5.464;2022-08-24T04:25:51;26.40;45.90
25102;DHT22;13087;51.472;5.464;2022-08-24T04:28:18;26.40;45.90
25102;DHT22;13087;51.472;5.464;2022-08-24T04:30:44;26.40;46.00
25102;DHT22;13087;51.472;5.464;2022-08-24T04:33:10;26.40;46.00
25102;DHT22;13087;51.472;5.464;2022-08-24T04:35:39;26.40;46.00
25102;DHT22;13087;51.472;5.464;2022-08-24T04:38:06;26.40;46.00
25102;DHT22;13087;51.472;5.464;2022-08-24T04:40:32;26.40;46.00
25102;DHT22;13087;51.472;5.464;2022-08-24T04:42:58;26.40;46.00
25102;DHT22;13087;51.472;5.464;2022-08-24T04:45:24;26.40;46.00
25102;DHT22;13087;51.472;5.464;2022-08-24T04:47:50;26.40;46.00
25102;DHT22;13087;51.472;5.464;2022-08-24T04:50:15;26.40;46.00
25102;DHT22;13087;51.472;5.464;2022-08-24T04:52:41;26.40;46.00
25102;DHT22;13087;51.472;5.464;2022-08-24T04:55:06;26.40;45.90
25102;DHT22;13087;51.472;5.464;2022-08-24T04:57:32;26.40;46.00
25102;DHT22;13087;51.472;5.464;2022-08-24T04:59:58;26.30;45.90
25102;DHT22;13087;51.472;5.464;2022-08-24T05:02:24;26.40;46.00
25102;DHT22;13087;51.472;5.464;2022-08-24T05:04:50;26.40;46.00
25102;DHT22;13087;51.472;5.464;2022-08-24T05:07:16;26.40;46.00
25102;DHT22;13087;51.472;5.464;2022-08-24T05:09:42;26.30;46.00
25102;DHT22;13087;51.472;5.464;2022-08-24T05:12:08;26.40;46.10
25102;DHT22;13087;51.472;5.464;2022-08-24T05:14:34;26.40;46.10
25102;DHT22;13087;51.472;5.464;2022-08-24T05:17:00;26.40;46.10
25102;DHT22;13087;51.472;5.464;2022-08-24T05:19:25;26.40;46.10
25102;DHT22;13087;51.472;5.464;2022-08-24T05:21:50;26.40;46.20
25102;DHT22;13087;51.472;5.464;2022-08-24T05:24:16;26.40;46.30
25102;DHT22;13087;51.472;5.464;2022-08-24T05:26:42;26.40;46.30
25102;DHT22;13087;51.472;5.464;2022-08-24T05:29:08;26.40;46.30
25102;DHT22;13087;51.472;5.464;2022-08-24T05:31:33;26.40;46.20
25102;DHT22;13087;51.472;5.464;2022-08-24T05:33:59;26.40;46.10
25102;DHT22;13087;51.472;5.464;2022-08-24T05:36:26;26.50;46.10
25102;DHT22;13087;51.472;5.464;2022-08-24T05:38:53;26.60;46.00
25102;DHT22;13087;51.472;5.464;2022-08-24T05:41:19;26.70;46.00
25102;DHT22;13087;51.472;5.464;2022-08-24T05:43:45;26.60;45.90
25102;DHT22;13087;51.472;5.464;2022-08-24T05:46:11;26.70;45.80
25102;DHT22;13087;51.472;5.464;2022-08-24T05:48:37;26.70;45.80
25102;DHT22;13087;51.472;5.464;2022-08-24T05:51:03;26.70;45.80
25102;DHT22;13087;51.472;5.464;2022-08-24T05:53:29;26.80;45.90
25102;DHT22;13087;51.472;5.464;2022-08-24T05:55:54;26.80;45.80
25102;DHT22;13087;51.472;5.464;2022-08-24T05:58:20;26.80;46.50
25102;DHT22;13087;51.472;5.464;2022-08-24T06:00:45;26.80;46.50
25102;DHT22;13087;51.472;5.464;2022-08-24T06:03:11;26.90;45.80
25102;DHT22;13087;51.472;5.464;2022-08-24T06:05:38;26.90;45.80
25102;DHT22;13087;51.472;5.464;2022-08-24T06:08:04;26.90;46.50
25102;DHT22;13087;51.472;5.464;2022-08-24T06:10:29;26.90;45.70
25102;DHT22;13087;51.472;5.464;2022-08-24T06:12:55;27.00;45.80
25102;DHT22;13087;51.472;5.464;2022-08-24T06:15:20;27.00;45.80
25102;DHT22;13087;51.472;5.464;2022-08-24T06:17:46;27.10;45.70
25102;DHT22;13087;51.472;5.464;2022-08-24T06:20:12;27.10;45.70
25102;DHT22;13087;51.472;5.464;2022-08-24T06:22:37;27.20;45.70
25102;DHT22;13087;51.472;5.464;2022-08-24T06:25:03;27.20;45.70
25102;DHT22;13087;51.472;5.464;2022-08-24T06:27:47;27.30;45.70
25102;DHT22;13087;51.472;5.464;2022-08-24T06:30:13;27.30;45.70
25102;DHT22;13087;51.472;5.464;2022-08-24T06:32:38;27.30;45.70
25102;DHT22;13087;51.472;5.464;2022-08-24T06:35:04;27.40;45.70
25102;DHT22;13087;51.472;5.464;2022-08-24T06:37:32;27.40;45.70
25102;DHT22;13087;51.472;5.464;2022-08-24T06:39:57;27.40;45.70
25102;DHT22;13087;51.472;5.464;2022-08-24T06:42:23;27.50;45.70
25102;DHT22;13087;51.472;5.464;2022-08-24T06:44:49;27.50;45.70
25102;DHT22;13087;51.472;5.464;2022-08-24T06:47:15;27.50;45.60
25102;DHT22;13087;51.472;5.464;2022-08-24T06:49:40;27.60;45.80
25102;DHT22;13087;51.472;5.464;2022-08-24T06:52:06;27.60;46.10
25102;DHT22;13087;51.472;5.464;2022-08-24T06:54:32;27.70;46.80
25102;DHT22;13087;51.472;5.464;2022-08-24T06:56:58;27.70;47.50
25102;DHT22;13087;51.472;5.464;2022-08-24T06:59:24;27.80;48.50
25102;DHT22;13087;51.472;5.464;2022-08-24T07:01:52;27.80;47.50
25102;DHT22;13087;51.472;5.464;2022-08-24T07:04:20;27.90;47.40
25102;DHT22;13087;51.472;5.464;2022-08-24T07:06:45;27.90;47.40
25102;DHT22;13087;51.472;5.464;2022-08-24T07:09:11;27.90;47.70
25102;DHT22;13087;51.472;5.464;2022-08-24T07:11:37;28.00;47.50
25102;DHT22;13087;51.472;5.464;2022-08-24T07:14:02;28.00;47.20
25102;DHT22;13087;51.472;5.464;2022-08-24T07:16:28;28.00;47.10
25102;DHT22;13087;51.472;5.464;2022-08-24T07:18:54;28.10;47.00
25102;DHT22;13087;51.472;5.464;2022-08-24T07:21:19;28.10;47.40
25102;DHT22;13087;51.472;5.464;2022-08-24T07:23:45;28.20;47.20
25102;DHT22;13087;51.472;5.464;2022-08-24T07:26:12;28.30;47.00
25102;DHT22;13087;51.472;5.464;2022-08-24T07:28:38;28.30;46.90
25102;DHT22;13087;51.472;5.464;2022-08-24T07:31:04;28.40;46.90
25102;DHT22;13087;51.472;5.464;2022-08-24T07:33:30;28.40;46.80
25102;DHT22;13087;51.472;5.464;2022-08-24T07:35:56;28.40;46.70
25102;DHT22;13087;51.472;5.464;2022-08-24T07:38:21;28.50;46.60
25102;DHT22;13087;51.472;5.464;2022-08-24T07:40:47;28.60;46.60
25102;DHT22;13087;51.472;5.464;2022-08-24T07:43:12;28.60;46.50
25102;DHT22;13087;51.472;5.464;2022-08-24T07:45:38;28.70;46.50
25102;DHT22;13087;51.472;5.464;2022-08-24T07:48:04;28.80;46.50
25102;DHT22;13087;51.472;5.464;2022-08-24T07:50:30;28.80;46.30
25102;DHT22;13087;51.472;5.464;2022-08-24T07:52:55;28.90;46.30
25102;DHT22;13087;51.472;5.464;2022-08-24T07:55:20;29.00;46.20
25102;DHT22;13087;51.472;5.464;2022-08-24T07:57:46;29.00;46.20
25102;DHT22;13087;51.472;5.464;2022-08-24T08:00:13;29.10;46.20
25102;DHT22;13087;51.472;5.464;2022-08-24T08:02:39;29.20;46.10
25102;DHT22;13087;51.472;5.464;2022-08-24T08:05:11;29.20;46.00
25102;DHT22;13087;51.472;5.464;2022-08-24T08:07:36;29.30;46.00
25102;DHT22;13087;51.472;5.464;2022-08-24T08:10:02;29.40;45.90
25102;DHT22;13087;51.472;5.464;2022-08-24T08:12:28;29.40;45.70
25102;DHT22;13087;51.472;5.464;2022-08-24T08:14:53;29.50;45.70
25102;DHT22;13087;51.472;5.464;2022-08-24T08:17:19;29.60;45.70
25102;DHT22;13087;51.472;5.464;2022-08-24T08:19:46;29.70;45.60
25102;DHT22;13087;51.472;5.464;2022-08-24T08:22:12;29.70;45.40
25102;DHT22;13087;51.472;5.464;2022-08-24T08:24:56;29.80;45.40
25102;DHT22;13087;51.472;5.464;2022-08-24T08:27:22;29.90;45.30
25102;DHT22;13087;51.472;5.464;2022-08-24T08:29:49;29.90;45.10
25102;DHT22;13087;51.472;5.464;2022-08-24T08:32:15;30.00;45.10
25102;DHT22;13087;51.472;5.464;2022-08-24T08:34:42;30.00;45.10
25102;DHT22;13087;51.472;5.464;2022-08-24T08:37:07;30.10;45.10
25102;DHT22;13087;51.472;5.464;2022-08-24T08:39:33;30.20;45.10
25102;DHT22;13087;51.472;5.464;2022-08-24T08:45:02;30.40;45.00
25102;DHT22;13087;51.472;5.464;2022-08-24T08:50:16;30.60;44.70
25102;DHT22;13087;51.472;5.464;2022-08-24T08:58:17;30.80;44.60
25102;DHT22;13087;51.472;5.464;2022-08-24T09:03:23;31.00;44.40
25102;DHT22;13087;51.472;5.464;2022-08-24T09:14:04;30.90;44.00
25102;DHT22;13087;51.472;5.464;2022-08-24T09:16:37;31.00;43.90
25102;DHT22;13087;51.472;5.464;2022-08-24T09:19:21;31.00;43.70
25102;DHT22;13087;51.472;5.464;2022-08-24T09:26:47;31.20;43.40
25102;DHT22;13087;51.472;5.464;2022-08-24T09:29:17;31.20;43.30
25102;DHT22;13087;51.472;5.464;2022-08-24T09:37:15;31.40;43.30
25102;DHT22;13087;51.472;5.464;2022-08-24T09:39:54;31.50;43.20
25102;DHT22;13087;51.472;5.464;2022-08-24T09:45:23;31.70;42.90
25102;DHT22;13087;51.472;5.464;2022-08-24T09:56:46;32.00;42.80
25102;DHT22;13087;51.472;5.464;2022-08-24T10:01:35;32.10;42.90
25102;DHT22;13087;51.472;5.464;2022-08-24T10:06:36;32.30;42.70
25102;DHT22;13087;51.472;5.464;2022-08-24T10:09:12;32.40;42.50
25102;DHT22;13087;51.472;5.464;2022-08-24T10:16:59;32.70;41.90
25102;DHT22;13087;51.472;5.464;2022-08-24T10:32:47;32.80;41.70
25102;DHT22;13087;51.472;5.464;2022-08-24T10:37:58;32.90;41.40
25102;DHT22;13087;51.472;5.464;2022-08-24T10:41:03;32.90;41.30
25102;DHT22;13087;51.472;5.464;2022-08-24T10:48:52;33.00;41.50
25102;DHT22;13087;51.472;5.464;2022-08-24T10:54:07;33.30;41.30
25102;DHT22;13087;51.472;5.464;2022-08-24T10:59:23;33.60;41.00
25102;DHT22;13087;51.472;5.464;2022-08-24T11:04:28;34.00;40.90
25102;DHT22;13087;51.472;5.464;2022-08-24T11:09:59;34.30;40.40
25102;DHT22;13087;51.472;5.464;2022-08-24T11:12:30;34.40;39.60
25102;DHT22;13087;51.472;5.464;2022-08-24T11:15:00;34.40;39.80
25102;DHT22;13087;51.472;5.464;2022-08-24T11:17:26;34.50;39.80
25102;DHT22;13087;51.472;5.464;2022-08-24T11:19:52;34.60;39.60
25102;DHT22;13087;51.472;5.464;2022-08-24T11:25:17;34.80;39.40
25102;DHT22;13087;51.472;5.464;2022-08-24T11:27:47;34.80;38.90
25102;DHT22;13087;51.472;5.464;2022-08-24T11:32:46;35.00;38.80
25102;DHT22;13087;51.472;5.464;2022-08-24T11:38:10;35.00;38.80
25102;DHT22;13087;51.472;5.464;2022-08-24T11:40:39;34.90;38.70
25102;DHT22;13087;51.472;5.464;2022-08-24T11:43:11;34.80;38.70
25102;DHT22;13087;51.472;5.464;2022-08-24T11:48:24;34.70;38.40
25102;DHT22;13087;51.472;5.464;2022-08-24T11:55:56;34.70;37.80
25102;DHT22;13087;51.472;5.464;2022-08-24T12:01:04;34.60;38.00
25102;DHT22;13087;51.472;5.464;2022-08-24T12:06:12;34.60;38.40
25102;DHT22;13087;51.472;5.464;2022-08-24T12:08:49;34.60;38.60
25102;DHT22;13087;51.472;5.464;2022-08-24T12:11:16;34.70;38.70
25102;DHT22;13087;51.472;5.464;2022-08-24T12:13:49;34.70;38.80
25102;DHT22;13087;51.472;5.464;2022-08-24T12:16:39;34.70;38.70
25102;DHT22;13087;51.472;5.464;2022-08-24T12:19:08;34.70;38.70
25102;DHT22;13087;51.472;5.464;2022-08-24T12:21:37;34.70;38.80
25102;DHT22;13087;51.472;5.464;2022-08-24T12:24:04;34.80;38.90
25102;DHT22;13087;51.472;5.464;2022-08-24T12:26:43;34.90;39.00
25102;DHT22;13087;51.472;5.464;2022-08-24T12:31:54;35.20;38.90
25102;DHT22;13087;51.472;5.464;2022-08-24T12:37:09;35.60;37.10
25102;DHT22;13087;51.472;5.464;2022-08-24T12:40:20;35.80;36.10
25102;DHT22;13087;51.472;5.464;2022-08-24T12:44:55;36.10;35.70
25102;DHT22;13087;51.472;5.464;2022-08-24T12:47:27;36.40;35.90
25102;DHT22;13087;51.472;5.464;2022-08-24T12:49:57;36.70;35.80
25102;DHT22;13087;51.472;5.464;2022-08-24T12:52:37;37.00;35.60
25102;DHT22;13087;51.472;5.464;2022-08-24T12:55:11;37.30;35.50
25102;DHT22;13087;51.472;5.464;2022-08-24T13:00:14;37.70;34.90
25102;DHT22;13087;51.472;5.464;2022-08-24T13:02:40;37.80;33.90
25102;DHT22;13087;51.472;5.464;2022-08-24T13:05:12;38.00;33.30
25102;DHT22;13087;51.472;5.464;2022-08-24T13:07:42;38.10;33.00
25102;DHT22;13087;51.472;5.464;2022-08-24T13:10:52;38.20;31.90
25102;DHT22;13087;51.472;5.464;2022-08-24T13:17:56;38.40;31.70
25102;DHT22;13087;51.472;5.464;2022-08-24T13:33:18;39.30;31.00
25102;DHT22;13087;51.472;5.464;2022-08-24T13:40:51;39.20;30.50
25102;DHT22;13087;51.472;5.464;2022-08-24T13:43:18;39.20;30.80
25102;DHT22;13087;51.472;5.464;2022-08-24T13:45:49;39.40;31.10
25102;DHT22;13087;51.472;5.464;2022-08-24T13:48:25;39.50;31.10
25102;DHT22;13087;51.472;5.464;2022-08-24T13:53:46;39.90;30.60
25102;DHT22;13087;51.472;5.464;2022-08-24T13:56:23;40.20;30.60
25102;DHT22;13087;51.472;5.464;2022-08-24T14:06:30;40.30;29.90
25102;DHT22;13087;51.472;5.464;2022-08-24T14:14:20;40.00;30.40
25102;DHT22;13087;51.472;5.464;2022-08-24T14:25:19;40.20;29.50
25102;DHT22;13087;51.472;5.464;2022-08-24T14:27:47;40.00;29.90
25102;DHT22;13087;51.472;5.464;2022-08-24T14:38:06;40.30;29.20
25102;DHT22;13087;51.472;5.464;2022-08-24T14:40:34;40.30;29.30
25102;DHT22;13087;51.472;5.464;2022-08-24T14:45:47;40.70;29.70
25102;DHT22;13087;51.472;5.464;2022-08-24T15:01:11;41.20;29.50
25102;DHT22;13087;51.472;5.464;2022-08-24T15:06:20;41.20;28.90
25102;DHT22;13087;51.472;5.464;2022-08-24T15:08:48;41.10;28.80
25102;DHT22;13087;51.472;5.464;2022-08-24T15:11:15;41.10;29.00
25102;DHT22;13087;51.472;5.464;2022-08-24T15:13:55;41.00;28.70
25102;DHT22;13087;51.472;5.464;2022-08-24T15:19:05;41.00;29.00
25102;DHT22;13087;51.472;5.464;2022-08-24T15:26:49;41.10;28.90
25102;DHT22;13087;51.472;5.464;2022-08-24T15:29:18;41.10;28.60
25102;DHT22;13087;51.472;5.464;2022-08-24T15:31:53;41.10;28.90
25102;DHT22;13087;51.472;5.464;2022-08-24T15:34:31;41.10;28.80
25102;DHT22;13087;51.472;5.464;2022-08-24T15:36:58;41.20;28.60
25102;DHT22;13087;51.472;5.464;2022-08-24T15:39:24;41.10;28.60
25102;DHT22;13087;51.472;5.464;2022-08-24T15:41:50;41.10;28.70
25102;DHT22;13087;51.472;5.464;2022-08-24T15:44:19;41.10;28.70
25102;DHT22;13087;51.472;5.464;2022-08-24T15:49:32;41.10;29.10
25102;DHT22;13087;51.472;5.464;2022-08-24T15:52:03;41.00;28.80
25102;DHT22;13087;51.472;5.464;2022-08-24T15:54:42;41.10;29.10
25102;DHT22;13087;51.472;5.464;2022-08-24T15:57:10;41.00;28.70
25102;DHT22;13087;51.472;5.464;2022-08-24T15:59:51;40.90;28.10
25102;DHT22;13087;51.472;5.464;2022-08-24T16:02:27;40.60;28.50
25102;DHT22;13087;51.472;5.464;2022-08-24T16:05:09;40.60;28.50
25102;DHT22;13087;51.472;5.464;2022-08-24T16:10:27;40.50;28.80
25102;DHT22;13087;51.472;5.464;2022-08-24T16:13:04;40.50;28.60
25102;DHT22;13087;51.472;5.464;2022-08-24T16:15:30;40.40;28.10
25102;DHT22;13087;51.472;5.464;2022-08-24T16:17:56;40.40;28.50
25102;DHT22;13087;51.472;5.464;2022-08-24T16:22:54;40.50;28.90
25102;DHT22;13087;51.472;5.464;2022-08-24T16:25:22;40.60;28.70
25102;DHT22;13087;51.472;5.464;2022-08-24T16:27:59;40.60;27.90
25102;DHT22;13087;51.472;5.464;2022-08-24T16:30:27;40.50;28.10
25102;DHT22;13087;51.472;5.464;2022-08-24T16:32:54;40.60;28.20
25102;DHT22;13087;51.472;5.464;2022-08-24T16:35:21;40.50;28.20
25102;DHT22;13087;51.472;5.464;2022-08-24T16:37:47;40.50;27.80
25102;DHT22;13087;51.472;5.464;2022-08-24T16:40:13;40.30;27.90
25102;DHT22;13087;51.472;5.464;2022-08-24T16:42:38;40.20;27.90
25102;DHT22;13087;51.472;5.464;2022-08-24T16:45:04;40.10;28.00
25102;DHT22;13087;51.472;5.464;2022-08-24T16:47:30;40.00;28.10
25102;DHT22;13087;51.472;5.464;2022-08-24T16:49:55;39.90;27.50
25102;DHT22;13087;51.472;5.464;2022-08-24T16:52:21;39.80;27.80
25102;DHT22;13087;51.472;5.464;2022-08-24T16:54:46;39.70;27.90
25102;DHT22;13087;51.472;5.464;2022-08-24T16:59:41;39.70;28.20
25102;DHT22;13087;51.472;5.464;2022-08-24T17:02:08;39.70;28.30
25102;DHT22;13087;51.472;5.464;2022-08-24T17:04:34;39.60;28.10
25102;DHT22;13087;51.472;5.464;2022-08-24T17:07:00;39.50;28.20
25102;DHT22;13087;51.472;5.464;2022-08-24T17:09:26;39.40;28.00
25102;DHT22;13087;51.472;5.464;2022-08-24T17:11:52;39.30;28.40
25102;DHT22;13087;51.472;5.464;2022-08-24T17:14:18;39.30;28.60
25102;DHT22;13087;51.472;5.464;2022-08-24T17:16:44;39.10;28.40
25102;DHT22;13087;51.472;5.464;2022-08-24T17:19:14;39.10;28.50
25102;DHT22;13087;51.472;5.464;2022-08-24T17:21:41;39.00;28.80
25102;DHT22;13087;51.472;5.464;2022-08-24T17:24:07;38.90;28.60
25102;DHT22;13087;51.472;5.464;2022-08-24T17:26:33;38.70;28.60
25102;DHT22;13087;51.472;5.464;2022-08-24T17:29:00;38.60;28.70
25102;DHT22;13087;51.472;5.464;2022-08-24T17:31:26;38.50;28.70
25102;DHT22;13087;51.472;5.464;2022-08-24T17:33:53;38.40;29.40
25102;DHT22;13087;51.472;5.464;2022-08-24T17:36:19;38.30;29.00
25102;DHT22;13087;51.472;5.464;2022-08-24T17:38:46;38.30;29.00
25102;DHT22;13087;51.472;5.464;2022-08-24T17:41:12;38.20;29.20
25102;DHT22;13087;51.472;5.464;2022-08-24T17:43:38;38.20;29.20
25102;DHT22;13087;51.472;5.464;2022-08-24T17:46:04;38.10;29.30
25102;DHT22;13087;51.472;5.464;2022-08-24T17:48:31;38.10;29.40
25102;DHT22;13087;51.472;5.464;2022-08-24T17:50:57;38.00;29.50
25102;DHT22;13087;51.472;5.464;2022-08-24T17:53:22;38.00;29.60
25102;DHT22;13087;51.472;5.464;2022-08-24T17:55:48;38.00;29.70
25102;DHT22;13087;51.472;5.464;2022-08-24T17:58:14;37.90;29.80
25102;DHT22;13087;51.472;5.464;2022-08-24T18:00:40;37.90;29.90
25102;DHT22;13087;51.472;5.464;2022-08-24T18:03:05;37.90;29.90
25102;DHT22;13087;51.472;5.464;2022-08-24T18:05:31;37.80;30.00
25102;DHT22;13087;51.472;5.464;2022-08-24T18:07:57;37.80;30.00
25102;DHT22;13087;51.472;5.464;2022-08-24T18:10:24;37.70;30.00
25102;DHT22;13087;51.472;5.464;2022-08-24T18:12:50;37.60;30.00
25102;DHT22;13087;51.472;5.464;2022-08-24T18:15:15;37.50;30.10
25102;DHT22;13087;51.472;5.464;2022-08-24T18:17:42;37.50;30.20
25102;DHT22;13087;51.472;5.464;2022-08-24T18:20:09;37.40;30.30
25102;DHT22;13087;51.472;5.464;2022-08-24T18:22:36;37.30;30.40
25102;DHT22;13087;51.472;5.464;2022-08-24T18:25:09;37.30;30.40
25102;DHT22;13087;51.472;5.464;2022-08-24T18:27:35;37.30;30.60
25102;DHT22;13087;51.472;5.464;2022-08-24T18:30:02;37.30;30.70
25102;DHT22;13087;51.472;5.464;2022-08-24T18:32:29;37.20;30.60
25102;DHT22;13087;51.472;5.464;2022-08-24T18:34:54;37.20;30.80
25102;DHT22;13087;51.472;5.464;2022-08-24T18:37:20;37.20;30.90
25102;DHT22;13087;51.472;5.464;2022-08-24T18:39:45;37.10;30.90
25102;DHT22;13087;51.472;5.464;2022-08-24T18:42:11;37.20;31.00
25102;DHT22;13087;51.472;5.464;2022-08-24T18:44:37;37.10;31.00
25102;DHT22;13087;51.472;5.464;2022-08-24T18:47:03;37.10;31.00
25102;DHT22;13087;51.472;5.464;2022-08-24T18:49:29;37.00;31.10
25102;DHT22;13087;51.472;5.464;2022-08-24T18:51:54;37.00;31.20
25102;DHT22;13087;51.472;5.464;2022-08-24T18:54:21;36.80;31.20
25102;DHT22;13087;51.472;5.464;2022-08-24T18:56:48;36.80;31.30
25102;DHT22;13087;51.472;5.464;2022-08-24T18:59:14;36.70;31.50
25102;DHT22;13087;51.472;5.464;2022-08-24T19:01:41;36.60;31.50
25102;DHT22;13087;51.472;5.464;2022-08-24T19:04:25;36.50;31.60
25102;DHT22;13087;51.472;5.464;2022-08-24T19:06:51;36.40;31.60
25102;DHT22;13087;51.472;5.464;2022-08-24T19:09:17;36.20;31.70